createdAt,value
2017-09-21T00:00:17.782Z,33.15
2017-09-21T00:02:45.382Z,28.38
2017-09-21T00:05:12.990Z,24.15
2017-09-21T00:07:40.597Z,24.63
2017-09-21T00:10:08.194Z,27.65
2017-09-21T00:12:36.575Z,27.13
2017-09-21T00:15:04.974Z,26.35
2017-09-21T00:17:32.534Z,22.05
2017-09-21T00:20:00.102Z,28.80
2017-09-21T00:22:27.726Z,22.77
2017-09-21T00:24:55.342Z,23.15
2017-09-21T00:27:22.954Z,25.95
2017-09-21T00:29:51.289Z,28.12
2017-09-21T00:32:18.945Z,22.08
2017-09-21T00:34:46.519Z,20.90
2017-09-21T00:37:14.085Z,23.25
2017-09-21T00:39:41.729Z,27.92
2017-09-21T00:42:09.299Z,20.25
2017-09-21T00:44:36.865Z,18.95
2017-09-21T00:47:04.477Z,23.08
2017-09-21T00:49:32.093Z,22.02
2017-09-21T00:51:59.698Z,21.30
2017-09-21T00:54:27.342Z,20.05
2017-09-21T00:56:55.747Z,20.25
2017-09-21T00:59:23.368Z,22.83
2017-09-21T01:01:50.958Z,20.73
2017-09-21T01:04:19.298Z,21.77
2017-09-21T01:06:46.922Z,20.27
2017-09-21T01:09:14.540Z,21.67
2017-09-21T01:11:42.119Z,19.95
2017-09-21T01:14:10.533Z,22.08
2017-09-21T01:16:38.113Z,19.23
2017-09-21T01:19:05.852Z,19.77
2017-09-21T01:21:33.462Z,23.67
2017-09-21T01:24:01.046Z,29.00
2017-09-21T01:26:29.453Z,23.30
2017-09-21T01:28:57.011Z,26.35
2017-09-21T01:31:24.703Z,28.17
2017-09-21T01:33:53.047Z,24.10
2017-09-21T01:36:20.643Z,23.92
2017-09-21T01:38:48.284Z,25.00
2017-09-21T01:41:15.867Z,28.70
2017-09-21T01:43:43.525Z,31.15
2017-09-21T01:46:11.102Z,28.30
2017-09-21T01:48:38.688Z,25.10
2017-09-21T01:51:06.306Z,27.05
2017-09-21T01:53:33.882Z,23.75
2017-09-21T01:56:01.525Z,24.17
2017-09-21T01:58:29.112Z,29.15
2017-09-21T02:00:56.735Z,27.33
2017-09-21T02:03:24.353Z,27.15
2017-09-21T02:05:51.939Z,30.40
2017-09-21T02:08:20.310Z,28.52
2017-09-21T02:10:48.691Z,30.58
2017-09-21T02:13:16.316Z,25.27
2017-09-21T02:15:43.886Z,31.17
2017-09-21T02:18:11.518Z,30.05
2017-09-21T02:20:39.102Z,28.75
2017-09-21T02:23:06.698Z,35.17
2017-09-21T02:25:35.122Z,32.03
2017-09-21T02:28:03.473Z,33.92
2017-09-21T02:30:31.253Z,35.13
2017-09-21T02:32:58.835Z,38.90
2017-09-21T02:35:26.427Z,39.97
2017-09-21T02:37:54.035Z,36.45
2017-09-21T02:40:21.666Z,34.80
2017-09-21T02:42:50.001Z,32.40
2017-09-21T02:45:17.634Z,33.00
2017-09-21T02:47:45.254Z,43.38
2017-09-21T02:50:12.877Z,36.20
2017-09-21T02:52:40.468Z,38.90
2017-09-21T02:55:08.075Z,39.45
2017-09-21T02:57:35.765Z,38.85
2017-09-21T03:00:03.378Z,39.25
2017-09-21T03:02:31.709Z,35.08
2017-09-21T03:04:59.353Z,38.47
2017-09-21T03:07:26.921Z,37.08
2017-09-21T03:09:54.518Z,36.35
2017-09-21T03:12:22.127Z,35.15
2017-09-21T03:14:49.745Z,34.25
2017-09-21T03:17:17.318Z,37.03
2017-09-21T03:19:44.982Z,38.47
2017-09-21T03:22:13.350Z,36.10
2017-09-21T03:24:41.771Z,33.85
2017-09-21T03:27:09.329Z,36.33
2017-09-21T03:29:36.988Z,35.60
2017-09-21T03:32:04.550Z,31.52
2017-09-21T03:34:32.887Z,41.67
2017-09-21T03:37:00.488Z,37.40
2017-09-21T03:39:28.086Z,37.95
2017-09-21T03:41:55.740Z,36.45
2017-09-21T03:44:23.409Z,35.60
2017-09-21T03:46:50.986Z,54.00
2017-09-21T03:49:18.624Z,32.45
2017-09-21T03:51:46.238Z,29.02
2017-09-21T03:54:13.832Z,34.13
2017-09-21T03:56:41.471Z,31.52
2017-09-21T03:59:09.821Z,34.33
2017-09-21T04:01:37.407Z,39.92
2017-09-21T04:04:05.872Z,45.20
2017-09-21T04:06:33.442Z,39.85
2017-09-21T04:09:01.843Z,33.10
2017-09-21T04:11:29.496Z,37.58
2017-09-21T04:13:57.854Z,32.55
2017-09-21T04:16:25.474Z,32.25
2017-09-21T04:18:53.064Z,34.72
2017-09-21T04:21:20.662Z,38.58
2017-09-21T04:23:49.080Z,32.42
2017-09-21T04:26:16.668Z,33.75
2017-09-21T04:28:44.313Z,35.08
2017-09-21T04:31:11.997Z,35.35
2017-09-21T04:33:39.649Z,35.92
2017-09-21T04:36:07.292Z,57.85
2017-09-21T04:38:34.914Z,35.97
2017-09-21T04:41:03.309Z,33.35
2017-09-21T04:43:30.879Z,36.05
2017-09-21T04:45:58.668Z,32.33
2017-09-21T04:48:26.297Z,36.72
2017-09-21T04:50:53.932Z,36.80
2017-09-21T04:53:21.550Z,34.45
2017-09-21T04:55:49.179Z,38.70
2017-09-21T04:58:17.525Z,43.28
2017-09-21T05:00:45.977Z,41.08
2017-09-21T05:03:13.579Z,42.50
2017-09-21T05:05:42.014Z,45.05
2017-09-21T05:08:09.634Z,46.25
2017-09-21T05:10:38.126Z,44.63
2017-09-21T05:13:05.759Z,45.40
2017-09-21T05:15:33.365Z,45.47
2017-09-21T05:18:01.019Z,45.40
2017-09-21T05:20:28.643Z,47.00
2017-09-21T05:22:56.338Z,39.40
2017-09-21T05:25:24.764Z,43.13
2017-09-21T05:27:52.381Z,48.95
2017-09-21T05:30:19.995Z,46.70
2017-09-21T05:32:47.645Z,41.00
2017-09-21T05:35:15.243Z,39.88
2017-09-21T05:37:42.810Z,53.17
2017-09-21T05:40:10.513Z,42.65
2017-09-21T05:42:38.225Z,38.75
2017-09-21T05:45:05.895Z,59.78
2017-09-21T05:47:34.245Z,49.35
2017-09-21T05:50:01.908Z,40.17
2017-09-21T05:52:29.534Z,40.55
2017-09-21T05:54:57.190Z,50.60
2017-09-21T05:57:24.830Z,44.13
2017-09-21T05:59:52.509Z,38.83
2017-09-21T06:02:20.113Z,44.55
2017-09-21T06:04:47.723Z,34.65
2017-09-21T06:07:16.122Z,41.60
2017-09-21T06:09:43.739Z,33.05
2017-09-21T06:12:11.382Z,35.53
2017-09-21T06:14:39.004Z,39.55
2017-09-21T06:17:06.579Z,39.85
2017-09-21T06:19:34.662Z,36.10
2017-09-21T06:22:02.959Z,32.00
2017-09-21T06:24:30.627Z,35.88
2017-09-21T06:26:58.210Z,27.90
2017-09-21T06:29:26.753Z,32.63
2017-09-21T06:31:54.339Z,31.20
2017-09-21T06:34:23.823Z,22.98
2017-09-21T06:36:51.876Z,30.77
2017-09-21T06:39:24.382Z,37.47
2017-09-21T06:41:52.315Z,32.47
2017-09-21T06:44:20.126Z,32.22
2017-09-21T06:46:47.700Z,33.22
2017-09-21T06:49:15.323Z,30.12
2017-09-21T06:51:43.129Z,30.08
2017-09-21T06:54:10.797Z,32.95
2017-09-21T06:56:38.754Z,16.92
2017-09-21T06:59:07.169Z,27.27
2017-09-21T07:01:35.510Z,19.80
2017-09-21T07:04:04.097Z,22.62
2017-09-21T07:06:31.686Z,25.42
2017-09-21T07:09:00.082Z,25.00
2017-09-21T07:11:27.697Z,22.58
2017-09-21T07:13:55.290Z,17.20
2017-09-21T07:16:23.727Z,19.83
2017-09-21T07:18:51.819Z,25.05
2017-09-21T07:21:19.385Z,32.65
2017-09-21T07:23:46.994Z,23.33
2017-09-21T07:26:14.636Z,19.33
2017-09-21T07:28:42.970Z,17.73
2017-09-21T07:31:10.548Z,18.40
2017-09-21T07:33:38.215Z,24.85
2017-09-21T07:36:05.835Z,20.02
2017-09-21T07:38:34.281Z,36.83
2017-09-21T07:41:02.629Z,27.87
2017-09-21T07:43:30.192Z,27.92
2017-09-21T07:45:57.828Z,18.50
2017-09-21T07:48:25.442Z,21.92
2017-09-21T07:50:53.899Z,28.98
2017-09-21T07:53:23.554Z,33.05
2017-09-21T07:55:51.181Z,27.62
2017-09-21T07:58:19.581Z,34.47
2017-09-21T08:00:47.216Z,33.72
2017-09-21T08:03:15.572Z,28.20
2017-09-21T08:05:43.384Z,29.83
2017-09-21T08:08:11.713Z,25.62
2017-09-21T08:10:39.309Z,26.10
2017-09-21T08:13:06.974Z,30.92
2017-09-21T08:15:35.471Z,33.08
2017-09-21T08:18:03.878Z,32.35
2017-09-21T08:20:31.466Z,26.30
2017-09-21T08:22:59.115Z,22.92
2017-09-21T08:25:26.697Z,30.50
2017-09-21T08:27:54.342Z,23.23
2017-09-21T08:30:21.961Z,20.30
2017-09-21T08:32:49.537Z,25.03
2017-09-21T08:35:17.122Z,24.37
2017-09-21T08:37:44.725Z,36.63
2017-09-21T08:40:13.080Z,35.17
2017-09-21T08:42:40.767Z,28.73
2017-09-21T08:45:08.412Z,22.80
2017-09-21T08:47:36.293Z,31.83
2017-09-21T08:50:03.915Z,19.20
2017-09-21T08:52:31.496Z,19.37
2017-09-21T08:54:59.135Z,18.97
2017-09-21T08:57:27.127Z,19.47
2017-09-21T08:59:54.744Z,20.77
2017-09-21T09:02:22.661Z,20.97
2017-09-21T09:04:50.355Z,13.77
2017-09-21T09:07:18.739Z,18.27
2017-09-21T09:09:47.136Z,15.83
2017-09-21T09:12:14.757Z,20.13
2017-09-21T09:14:42.322Z,16.70
2017-09-21T09:17:09.906Z,15.00
2017-09-21T09:19:38.272Z,18.83
2017-09-21T09:22:06.661Z,13.40
2017-09-21T09:24:35.065Z,15.60
2017-09-21T09:27:02.809Z,14.90
2017-09-21T09:29:31.150Z,12.37
2017-09-21T09:31:58.768Z,12.40
2017-09-21T09:34:26.425Z,11.60
2017-09-21T09:36:54.181Z,15.63
2017-09-21T09:39:21.841Z,14.90
2017-09-21T09:41:50.186Z,13.70
2017-09-21T09:44:17.928Z,16.43
2017-09-21T09:46:45.594Z,13.90
2017-09-21T09:49:13.204Z,13.10
2017-09-21T09:51:41.786Z,12.63
2017-09-21T09:54:12.166Z,14.27
2017-09-21T09:56:40.048Z,12.50
2017-09-21T09:59:08.493Z,14.33
2017-09-21T10:01:36.087Z,12.33
2017-09-21T10:04:03.713Z,11.53
2017-09-21T10:06:32.191Z,12.77
2017-09-21T10:08:59.974Z,13.57
2017-09-21T10:11:27.563Z,11.67
2017-09-21T10:13:55.179Z,10.97
2017-09-21T10:16:22.836Z,13.27
2017-09-21T10:18:50.542Z,13.00
2017-09-21T10:21:18.201Z,10.20
2017-09-21T10:23:45.837Z,12.33
2017-09-21T10:26:13.441Z,13.10
2017-09-21T10:28:41.029Z,11.87
2017-09-21T10:31:09.410Z,21.53
2017-09-21T10:33:37.790Z,10.90
2017-09-21T10:36:05.429Z,15.53
2017-09-21T10:38:33.053Z,16.03
2017-09-21T10:41:01.401Z,18.90
2017-09-21T10:43:40.254Z,17.73
2017-09-21T10:46:09.197Z,14.80
2017-09-21T10:48:36.780Z,22.60
2017-09-21T10:51:04.503Z,22.90
2017-09-21T10:53:32.390Z,15.47
2017-09-21T10:56:00.347Z,15.20
2017-09-21T10:58:28.046Z,13.20
2017-09-21T11:00:56.463Z,16.50
2017-09-21T11:03:24.037Z,15.00
2017-09-21T11:05:52.381Z,24.30
2017-09-21T11:08:20.021Z,35.77
2017-09-21T11:10:47.647Z,17.57
2017-09-21T11:13:15.310Z,15.10
2017-09-21T11:15:42.980Z,15.47
2017-09-21T11:18:10.645Z,15.27
2017-09-21T11:20:38.257Z,14.30
2017-09-21T11:23:05.870Z,17.57
2017-09-21T11:25:33.480Z,22.70
2017-09-21T11:28:01.072Z,17.30
2017-09-21T11:30:28.750Z,13.60
2017-09-21T11:32:56.351Z,9.67
2017-09-21T11:35:24.699Z,15.90
2017-09-21T11:37:52.409Z,10.40
2017-09-21T11:40:20.079Z,8.37
2017-09-21T11:42:47.699Z,8.17
2017-09-21T11:45:16.027Z,7.13
2017-09-21T11:47:43.669Z,10.40
2017-09-21T11:50:11.302Z,6.60
2017-09-21T11:52:38.899Z,6.60
2017-09-21T11:55:06.516Z,6.63
2017-09-21T11:57:34.913Z,9.03
2017-09-21T12:00:02.498Z,5.47
2017-09-21T12:02:30.884Z,8.27
2017-09-21T12:04:58.462Z,6.30
2017-09-21T12:07:26.097Z,9.80
2017-09-21T12:09:53.780Z,11.57
2017-09-21T12:12:21.365Z,5.53
2017-09-21T12:14:49.085Z,5.70
2017-09-21T12:17:16.670Z,6.23
2017-09-21T12:19:44.250Z,10.60
2017-09-21T12:22:11.936Z,6.93
2017-09-21T12:24:39.515Z,6.67
2017-09-21T12:27:08.248Z,6.43
2017-09-21T12:29:35.896Z,6.70
2017-09-21T12:32:03.504Z,9.23
2017-09-21T12:34:31.169Z,5.40
2017-09-21T12:36:58.727Z,5.47
2017-09-21T12:39:27.430Z,4.93
2017-09-21T12:41:55.790Z,5.30
2017-09-21T12:44:23.376Z,4.33
2017-09-21T12:46:51.786Z,5.17
2017-09-21T12:49:19.349Z,4.27
2017-09-21T12:51:46.994Z,4.30
2017-09-21T12:54:14.612Z,3.80
2017-09-21T12:56:42.178Z,4.73
2017-09-21T12:59:09.807Z,9.23
2017-09-21T13:01:37.589Z,6.30
2017-09-21T13:04:05.153Z,4.37
2017-09-21T13:06:32.781Z,4.53
2017-09-21T13:09:00.405Z,5.47
2017-09-21T13:11:28.747Z,5.70
2017-09-21T13:13:56.328Z,4.47
2017-09-21T13:16:24.035Z,7.10
2017-09-21T13:18:51.669Z,6.37
2017-09-21T13:21:20.029Z,6.17
2017-09-21T13:23:47.636Z,7.00
2017-09-21T13:26:16.046Z,8.30
2017-09-21T13:28:43.653Z,6.37
2017-09-21T13:31:12.054Z,6.87
2017-09-21T13:33:40.448Z,5.93
2017-09-21T13:36:08.035Z,5.70
2017-09-21T13:38:35.674Z,8.27
2017-09-21T13:41:04.065Z,27.73
2017-09-21T13:43:31.648Z,4.40
2017-09-21T13:45:59.331Z,5.60
2017-09-21T13:48:26.956Z,6.73
2017-09-21T13:50:54.643Z,3.50
2017-09-21T13:53:22.509Z,6.70
2017-09-21T13:55:50.112Z,3.43
2017-09-21T13:58:17.866Z,4.73
2017-09-21T14:00:46.229Z,4.27
2017-09-21T14:03:13.817Z,3.43
2017-09-21T14:05:41.439Z,8.33
2017-09-21T14:08:09.023Z,8.93
2017-09-21T14:10:37.472Z,3.77
2017-09-21T14:13:05.159Z,3.37
2017-09-21T14:15:34.081Z,2.53
2017-09-21T14:18:04.207Z,2.80
2017-09-21T14:20:33.957Z,3.57
2017-09-21T14:23:02.266Z,3.00
2017-09-21T14:25:29.993Z,4.40
2017-09-21T14:27:57.592Z,4.73
2017-09-21T14:30:25.269Z,10.50
2017-09-21T14:32:52.990Z,2.83
2017-09-21T14:35:20.762Z,3.03
2017-09-21T14:37:48.370Z,2.90
2017-09-21T14:40:16.093Z,4.57
2017-09-21T14:42:43.773Z,2.63
2017-09-21T14:45:11.447Z,3.37
2017-09-21T14:47:39.141Z,4.23
2017-09-21T14:50:07.474Z,2.67
2017-09-21T14:52:35.868Z,3.23
2017-09-21T14:55:04.332Z,3.90
2017-09-21T14:57:32.072Z,3.37
2017-09-21T14:59:59.709Z,3.20
2017-09-21T15:02:27.400Z,3.23
2017-09-21T15:04:54.965Z,3.47
2017-09-21T15:07:22.627Z,2.90
2017-09-21T15:09:50.316Z,3.43
2017-09-21T15:12:18.060Z,4.50
2017-09-21T15:14:45.688Z,2.67
2017-09-21T15:17:13.277Z,2.57
2017-09-21T15:19:40.901Z,2.87
2017-09-21T15:22:09.281Z,2.50
2017-09-21T15:24:36.848Z,4.10
2017-09-21T15:27:04.494Z,3.20
2017-09-21T15:29:32.165Z,3.43
2017-09-21T15:31:59.819Z,3.50
2017-09-21T15:34:28.249Z,6.33
2017-09-21T15:36:55.971Z,3.00
2017-09-21T15:39:23.563Z,2.40
2017-09-21T15:41:51.141Z,3.57
2017-09-21T15:44:18.780Z,3.00
2017-09-21T15:46:46.358Z,4.00
2017-09-21T15:49:14.015Z,4.90
2017-09-21T15:51:41.669Z,2.70
2017-09-21T15:54:09.259Z,3.17
2017-09-21T15:56:36.894Z,4.90
2017-09-21T15:59:05.429Z,2.90
2017-09-21T16:01:33.201Z,2.93
2017-09-21T16:04:01.543Z,2.93
2017-09-21T16:06:29.111Z,6.10
2017-09-21T16:08:56.778Z,2.93
2017-09-21T16:11:24.359Z,3.47
2017-09-21T16:13:52.989Z,2.53
2017-09-21T16:16:20.608Z,2.97
2017-09-21T16:18:48.214Z,2.60
2017-09-21T16:21:15.818Z,4.50
2017-09-21T16:23:43.469Z,3.10
2017-09-21T16:26:11.111Z,2.83
2017-09-21T16:28:38.740Z,5.47
2017-09-21T16:31:06.353Z,3.50
2017-09-21T16:33:33.916Z,7.77
2017-09-21T16:36:01.576Z,3.13
2017-09-21T16:38:29.285Z,2.67
2017-09-21T16:40:56.949Z,3.80
2017-09-21T16:43:24.581Z,7.53
2017-09-21T16:45:52.219Z,2.80
2017-09-21T16:48:19.861Z,2.80
2017-09-21T16:50:47.479Z,3.10
2017-09-21T16:53:15.847Z,7.50
2017-09-21T16:55:43.443Z,6.93
2017-09-21T16:58:11.110Z,3.63
2017-09-21T17:00:38.683Z,5.00
2017-09-21T17:03:06.255Z,4.80
2017-09-21T17:05:33.875Z,7.00
2017-09-21T17:08:01.508Z,4.87
2017-09-21T17:10:29.115Z,7.60
2017-09-21T17:12:56.745Z,4.37
2017-09-21T17:15:24.403Z,5.23
2017-09-21T17:17:51.982Z,6.13
2017-09-21T17:20:20.391Z,4.20
2017-09-21T17:22:47.967Z,5.10
2017-09-21T17:25:15.646Z,6.57
2017-09-21T17:27:43.220Z,6.90
2017-09-21T17:30:10.839Z,5.23
2017-09-21T17:32:38.465Z,4.93
2017-09-21T17:35:06.056Z,4.47
2017-09-21T17:37:33.707Z,4.90
2017-09-21T17:40:01.325Z,4.37
2017-09-21T17:42:28.940Z,5.47
2017-09-21T17:44:56.563Z,4.53
2017-09-21T17:47:24.922Z,6.35
2017-09-21T17:49:52.617Z,6.27
2017-09-21T17:52:21.039Z,4.68
2017-09-21T17:54:48.616Z,4.18
2017-09-21T17:57:16.230Z,4.37
2017-09-21T17:59:43.860Z,5.05
2017-09-21T18:02:11.492Z,10.48
2017-09-21T18:04:39.179Z,3.90
2017-09-21T18:07:06.787Z,3.85
2017-09-21T18:09:34.474Z,5.62
2017-09-21T18:12:02.060Z,5.18
2017-09-21T18:14:29.646Z,4.70
2017-09-21T18:16:57.291Z,6.65
2017-09-21T18:19:24.933Z,4.40
2017-09-21T18:21:52.582Z,13.88
2017-09-21T18:24:20.167Z,5.62
2017-09-21T18:26:47.827Z,6.10
2017-09-21T18:29:15.447Z,11.65
2017-09-21T18:31:43.070Z,4.75
2017-09-21T18:34:11.360Z,4.30
2017-09-21T18:36:38.981Z,7.10
2017-09-21T18:39:06.594Z,6.97
2017-09-21T18:41:34.953Z,10.48
2017-09-21T18:44:02.568Z,6.37
2017-09-21T18:46:30.146Z,4.87
2017-09-21T18:48:57.887Z,4.85
2017-09-21T18:51:25.483Z,9.88
2017-09-21T18:53:53.099Z,5.40
2017-09-21T18:56:20.673Z,5.10
2017-09-21T18:58:48.262Z,3.80
2017-09-21T19:01:15.887Z,16.02
2017-09-21T19:03:43.516Z,8.43
2017-09-21T19:06:11.151Z,4.97
2017-09-21T19:08:38.719Z,4.50
2017-09-21T19:11:07.187Z,4.75
2017-09-21T19:13:34.815Z,5.37
2017-09-21T19:16:02.391Z,4.85
2017-09-21T19:18:30.048Z,5.35
2017-09-21T19:20:57.624Z,4.10
2017-09-21T19:23:25.260Z,4.40
2017-09-21T19:25:52.838Z,5.10
2017-09-21T19:28:20.478Z,5.20
2017-09-21T19:30:48.097Z,4.85
2017-09-21T19:33:15.676Z,9.20
2017-09-21T19:35:43.312Z,5.32
2017-09-21T19:38:10.879Z,6.07
2017-09-21T19:40:38.482Z,5.43
2017-09-21T19:43:08.085Z,5.50
2017-09-21T19:45:36.424Z,5.78
2017-09-21T19:48:04.061Z,7.45
2017-09-21T19:50:31.643Z,7.90
2017-09-21T19:52:59.220Z,6.45
2017-09-21T19:55:26.853Z,5.30
2017-09-21T19:57:54.464Z,5.70
2017-09-21T20:00:22.845Z,5.90
2017-09-21T20:02:51.264Z,5.50
2017-09-21T20:05:18.896Z,5.18
2017-09-21T20:07:46.531Z,4.82
2017-09-21T20:10:14.106Z,5.68
2017-09-21T20:12:42.461Z,9.10
2017-09-21T20:15:10.078Z,6.20
2017-09-21T20:17:37.653Z,6.55
2017-09-21T20:20:05.293Z,6.18
2017-09-21T20:22:32.876Z,4.60
2017-09-21T20:25:00.452Z,5.70
2017-09-21T20:27:28.083Z,16.10
2017-09-21T20:29:55.671Z,6.10
2017-09-21T20:32:23.238Z,6.30
2017-09-21T20:34:50.843Z,5.43
2017-09-21T20:37:19.201Z,10.88
2017-09-21T20:39:46.832Z,6.95
2017-09-21T20:42:14.436Z,7.60
2017-09-21T20:44:42.879Z,12.48
2017-09-21T20:47:10.483Z,7.72
2017-09-21T20:49:38.819Z,7.07
2017-09-21T20:52:06.422Z,10.55
2017-09-21T20:54:34.771Z,7.07
2017-09-21T20:57:02.403Z,6.40
2017-09-21T20:59:29.980Z,6.03
2017-09-21T21:01:57.584Z,6.72
2017-09-21T21:04:25.934Z,10.93
2017-09-21T21:06:53.607Z,5.70
2017-09-21T21:09:21.238Z,9.02
2017-09-21T21:11:48.857Z,6.32
2017-09-21T21:14:17.196Z,10.45
2017-09-21T21:16:44.817Z,6.03
2017-09-21T21:19:12.387Z,6.60
2017-09-21T21:21:39.965Z,7.12
2017-09-21T21:24:07.576Z,7.93
2017-09-21T21:26:35.912Z,6.18
2017-09-21T21:29:03.522Z,5.75
2017-09-21T21:31:31.851Z,9.48
2017-09-21T21:33:59.501Z,4.87
2017-09-21T21:36:27.082Z,5.30
2017-09-21T21:38:56.304Z,5.72
2017-09-21T21:41:23.919Z,8.43
2017-09-21T21:43:51.490Z,9.00
2017-09-21T21:46:19.051Z,8.02
2017-09-21T21:48:46.652Z,9.10
2017-09-21T21:51:14.277Z,6.50
2017-09-21T21:53:41.896Z,9.45
2017-09-21T21:56:10.331Z,12.95
2017-09-21T21:58:37.913Z,7.03
2017-09-21T22:01:05.533Z,5.50
2017-09-21T22:03:33.140Z,8.38
2017-09-21T22:06:00.743Z,9.02
2017-09-21T22:08:28.346Z,6.87
2017-09-21T22:10:55.916Z,6.05
2017-09-21T22:13:23.543Z,9.48
2017-09-21T22:15:51.143Z,7.18
2017-09-21T22:18:18.743Z,5.87
2017-09-21T22:20:46.375Z,6.32
2017-09-21T22:23:13.957Z,5.95
2017-09-21T22:25:42.306Z,8.00
2017-09-21T22:28:09.945Z,5.50
2017-09-21T22:30:37.563Z,8.50
2017-09-21T22:33:05.171Z,16.70
2017-09-21T22:35:32.735Z,5.50
2017-09-21T22:38:00.356Z,6.22
2017-09-21T22:40:27.935Z,6.60
2017-09-21T22:42:55.540Z,5.68
2017-09-21T22:45:23.176Z,5.78
2017-09-21T22:47:50.801Z,8.40
2017-09-21T22:50:18.407Z,10.23
2017-09-21T22:52:45.980Z,9.75
2017-09-21T22:55:13.590Z,5.65
2017-09-21T22:57:41.855Z,6.25
2017-09-21T23:00:09.445Z,5.60
2017-09-21T23:02:37.024Z,6.07
2017-09-21T23:05:04.643Z,5.37
2017-09-21T23:07:32.975Z,5.45
2017-09-21T23:10:00.590Z,7.95
2017-09-21T23:12:28.180Z,5.62
2017-09-21T23:14:55.803Z,5.03
2017-09-21T23:17:24.137Z,6.60
2017-09-21T23:19:51.701Z,4.57
2017-09-21T23:22:19.307Z,4.55
2017-09-21T23:24:46.916Z,4.10
2017-09-21T23:27:14.533Z,5.35
2017-09-21T23:29:42.142Z,5.12
2017-09-21T23:32:09.752Z,4.85
2017-09-21T23:34:37.368Z,7.00
2017-09-21T23:37:04.948Z,5.68
2017-09-21T23:39:32.548Z,5.55
2017-09-21T23:42:00.197Z,5.20
2017-09-21T23:44:27.766Z,5.47
2017-09-21T23:46:55.383Z,5.68
2017-09-21T23:49:22.951Z,5.95
2017-09-21T23:51:50.566Z,4.87
2017-09-21T23:54:18.129Z,4.68
2017-09-21T23:56:46.474Z,5.37
2017-09-21T23:59:14.848Z,6.28
